sensor_id;sensor_type;location;lat;lon;timestamp;P1;durP1;ratioP1;P2;durP2;ratioP2
11691;SDS011;33659;42.672;23.354;2023-04-24T00:00:07;6.35;;;4.05;;
11691;SDS011;33659;42.672;23.354;2023-04-24T00:02:35;6.63;;;4.18;;
11691;SDS011;33659;42.672;23.354;2023-04-24T00:05:03;6.97;;;4.50;;
11691;SDS011;33659;42.672;23.354;2023-04-24T00:07:30;5.72;;;4.20;;
11691;SDS011;33659;42.672;23.354;2023-04-24T00:09:57;4.90;;;4.10;;
11691;SDS011;33659;42.672;23.354;2023-04-24T00:12:25;5.45;;;4.30;;
11691;SDS011;33659;42.672;23.354;2023-04-24T00:14:52;7.53;;;4.15;;
11691;SDS011;33659;42.672;23.354;2023-04-24T00:17:20;4.60;;;3.38;;
11691;SDS011;33659;42.672;23.354;2023-04-24T00:19:47;5.72;;;3.67;;
11691;SDS011;33659;42.672;23.354;2023-04-24T00:22:13;4.05;;;3.28;;
11691;SDS011;33659;42.672;23.354;2023-04-24T00:24:40;4.78;;;3.53;;
11691;SDS011;33659;42.672;23.354;2023-04-24T00:27:07;5.93;;;3.30;;
11691;SDS011;33659;42.672;23.354;2023-04-24T00:29:33;4.05;;;3.20;;
11691;SDS011;33659;42.672;23.354;2023-04-24T00:32:00;3.80;;;3.40;;
11691;SDS011;33659;42.672;23.354;2023-04-24T00:34:28;6.15;;;3.00;;
11691;SDS011;33659;42.672;23.354;2023-04-24T00:36:55;4.45;;;3.25;;
11691;SDS011;33659;42.672;23.354;2023-04-24T00:39:21;3.92;;;3.00;;
11691;SDS011;33659;42.672;23.354;2023-04-24T00:41:49;4.55;;;3.05;;
11691;SDS011;33659;42.672;23.354;2023-04-24T00:44:16;4.88;;;3.30;;
11691;SDS011;33659;42.672;23.354;2023-04-24T00:46:43;5.90;;;3.65;;
11691;SDS011;33659;42.672;23.354;2023-04-24T00:49:10;5.75;;;3.92;;
11691;SDS011;33659;42.672;23.354;2023-04-24T00:51:39;4.22;;;3.58;;
11691;SDS011;33659;42.672;23.354;2023-04-24T00:54:10;5.22;;;3.55;;
11691;SDS011;33659;42.672;23.354;2023-04-24T00:56:37;8.80;;;3.83;;
11691;SDS011;33659;42.672;23.354;2023-04-24T00:59:04;6.18;;;3.63;;
11691;SDS011;33659;42.672;23.354;2023-04-24T01:01:31;3.63;;;3.30;;
11691;SDS011;33659;42.672;23.354;2023-04-24T01:03:57;5.03;;;3.45;;
11691;SDS011;33659;42.672;23.354;2023-04-24T01:06:26;7.05;;;3.40;;
11691;SDS011;33659;42.672;23.354;2023-04-24T01:08:57;4.72;;;3.60;;
11691;SDS011;33659;42.672;23.354;2023-04-24T01:11:25;5.90;;;3.92;;
11691;SDS011;33659;42.672;23.354;2023-04-24T01:13:52;3.90;;;3.33;;
11691;SDS011;33659;42.672;23.354;2023-04-24T01:16:19;6.72;;;4.35;;
11691;SDS011;33659;42.672;23.354;2023-04-24T01:18:46;3.50;;;3.20;;
11691;SDS011;33659;42.672;23.354;2023-04-24T01:21:13;5.55;;;3.63;;
11691;SDS011;33659;42.672;23.354;2023-04-24T01:23:43;4.10;;;3.55;;
11691;SDS011;33659;42.672;23.354;2023-04-24T01:26:10;4.53;;;3.63;;
11691;SDS011;33659;42.672;23.354;2023-04-24T01:28:37;7.28;;;3.30;;
11691;SDS011;33659;42.672;23.354;2023-04-24T01:31:04;6.63;;;3.38;;
11691;SDS011;33659;42.672;23.354;2023-04-24T01:33:32;4.70;;;3.33;;
11691;SDS011;33659;42.672;23.354;2023-04-24T01:35:59;5.22;;;3.42;;
11691;SDS011;33659;42.672;23.354;2023-04-24T01:38:26;5.18;;;3.38;;
11691;SDS011;33659;42.672;23.354;2023-04-24T01:40:54;3.90;;;3.50;;
11691;SDS011;33659;42.672;23.354;2023-04-24T01:43:20;4.82;;;3.40;;
11691;SDS011;33659;42.672;23.354;2023-04-24T01:45:48;3.97;;;3.53;;
11691;SDS011;33659;42.672;23.354;2023-04-24T01:48:15;4.00;;;3.30;;
11691;SDS011;33659;42.672;23.354;2023-04-24T01:50:42;6.18;;;3.80;;
11691;SDS011;33659;42.672;23.354;2023-04-24T01:53:09;5.03;;;3.22;;
11691;SDS011;33659;42.672;23.354;2023-04-24T01:55:36;7.80;;;3.53;;
11691;SDS011;33659;42.672;23.354;2023-04-24T01:58:04;6.10;;;3.58;;
11691;SDS011;33659;42.672;23.354;2023-04-24T02:00:31;4.30;;;3.90;;
11691;SDS011;33659;42.672;23.354;2023-04-24T02:02:58;5.95;;;3.15;;
11691;SDS011;33659;42.672;23.354;2023-04-24T02:05:26;4.70;;;3.45;;
11691;SDS011;33659;42.672;23.354;2023-04-24T02:07:53;5.00;;;3.65;;
11691;SDS011;33659;42.672;23.354;2023-04-24T02:10:20;5.78;;;3.65;;
11691;SDS011;33659;42.672;23.354;2023-04-24T02:12:47;4.75;;;3.45;;
11691;SDS011;33659;42.672;23.354;2023-04-24T02:15:15;5.28;;;3.50;;
11691;SDS011;33659;42.672;23.354;2023-04-24T02:17:42;6.50;;;4.07;;
11691;SDS011;33659;42.672;23.354;2023-04-24T02:20:09;4.40;;;3.70;;
11691;SDS011;33659;42.672;23.354;2023-04-24T02:22:36;6.57;;;3.70;;
11691;SDS011;33659;42.672;23.354;2023-04-24T02:25:03;5.25;;;3.58;;
11691;SDS011;33659;42.672;23.354;2023-04-24T02:27:31;4.22;;;3.63;;
11691;SDS011;33659;42.672;23.354;2023-04-24T02:29:57;5.85;;;3.88;;
11691;SDS011;33659;42.672;23.354;2023-04-24T02:32:25;5.90;;;4.15;;
11691;SDS011;33659;42.672;23.354;2023-04-24T02:34:52;5.80;;;3.42;;
11691;SDS011;33659;42.672;23.354;2023-04-24T02:37:18;7.00;;;3.50;;
11691;SDS011;33659;42.672;23.354;2023-04-24T02:39:45;10.05;;;4.70;;
11691;SDS011;33659;42.672;23.354;2023-04-24T02:42:12;4.85;;;4.05;;
11691;SDS011;33659;42.672;23.354;2023-04-24T02:44:38;5.40;;;3.92;;
11691;SDS011;33659;42.672;23.354;2023-04-24T02:47:05;6.68;;;3.67;;
11691;SDS011;33659;42.672;23.354;2023-04-24T02:49:34;6.15;;;4.53;;
11691;SDS011;33659;42.672;23.354;2023-04-24T02:52:00;6.95;;;3.65;;
11691;SDS011;33659;42.672;23.354;2023-04-24T02:54:27;6.18;;;3.60;;
11691;SDS011;33659;42.672;23.354;2023-04-24T02:56:54;4.53;;;3.80;;
11691;SDS011;33659;42.672;23.354;2023-04-24T02:59:21;4.82;;;4.18;;
11691;SDS011;33659;42.672;23.354;2023-04-24T03:01:48;4.57;;;3.53;;
11691;SDS011;33659;42.672;23.354;2023-04-24T03:04:15;8.07;;;4.47;;
11691;SDS011;33659;42.672;23.354;2023-04-24T03:06:46;9.30;;;4.80;;
11691;SDS011;33659;42.672;23.354;2023-04-24T03:09:13;6.63;;;4.45;;
11691;SDS011;33659;42.672;23.354;2023-04-24T03:11:39;9.88;;;4.70;;
11691;SDS011;33659;42.672;23.354;2023-04-24T03:14:06;6.18;;;4.57;;
11691;SDS011;33659;42.672;23.354;2023-04-24T03:16:33;10.13;;;4.78;;
11691;SDS011;33659;42.672;23.354;2023-04-24T03:19:00;9.15;;;4.60;;
11691;SDS011;33659;42.672;23.354;2023-04-24T03:21:27;9.63;;;5.28;;
11691;SDS011;33659;42.672;23.354;2023-04-24T03:23:55;4.93;;;3.92;;
11691;SDS011;33659;42.672;23.354;2023-04-24T03:26:22;7.75;;;4.80;;
11691;SDS011;33659;42.672;23.354;2023-04-24T03:28:48;4.85;;;4.22;;
11691;SDS011;33659;42.672;23.354;2023-04-24T03:31:15;5.50;;;4.30;;
11691;SDS011;33659;42.672;23.354;2023-04-24T03:33:42;6.53;;;4.20;;
11691;SDS011;33659;42.672;23.354;2023-04-24T03:36:08;5.97;;;4.65;;
11691;SDS011;33659;42.672;23.354;2023-04-24T03:38:35;10.00;;;4.40;;
11691;SDS011;33659;42.672;23.354;2023-04-24T03:41:03;5.57;;;4.30;;
11691;SDS011;33659;42.672;23.354;2023-04-24T03:43:30;8.98;;;4.15;;
11691;SDS011;33659;42.672;23.354;2023-04-24T03:45:58;5.15;;;4.65;;
11691;SDS011;33659;42.672;23.354;2023-04-24T03:48:25;6.55;;;4.35;;
11691;SDS011;33659;42.672;23.354;2023-04-24T03:50:51;9.25;;;4.55;;
11691;SDS011;33659;42.672;23.354;2023-04-24T03:53:18;9.13;;;4.53;;
11691;SDS011;33659;42.672;23.354;2023-04-24T03:55:45;7.18;;;4.00;;
11691;SDS011;33659;42.672;23.354;2023-04-24T03:58:13;6.30;;;4.10;;
11691;SDS011;33659;42.672;23.354;2023-04-24T04:00:40;6.47;;;4.15;;
11691;SDS011;33659;42.672;23.354;2023-04-24T04:03:07;7.45;;;4.10;;
11691;SDS011;33659;42.672;23.354;2023-04-24T04:05:33;6.28;;;3.90;;
11691;SDS011;33659;42.672;23.354;2023-04-24T04:08:00;6.03;;;4.07;;
11691;SDS011;33659;42.672;23.354;2023-04-24T04:10:27;6.18;;;4.05;;
11691;SDS011;33659;42.672;23.354;2023-04-24T04:12:53;7.13;;;4.03;;
11691;SDS011;33659;42.672;23.354;2023-04-24T04:15:21;6.20;;;4.38;;
11691;SDS011;33659;42.672;23.354;2023-04-24T04:17:48;6.00;;;3.88;;
11691;SDS011;33659;42.672;23.354;2023-04-24T04:20:15;6.53;;;4.25;;
11691;SDS011;33659;42.672;23.354;2023-04-24T04:22:41;9.52;;;4.18;;
11691;SDS011;33659;42.672;23.354;2023-04-24T04:25:08;7.15;;;3.92;;
11691;SDS011;33659;42.672;23.354;2023-04-24T04:27:35;8.07;;;3.80;;
11691;SDS011;33659;42.672;23.354;2023-04-24T04:30:02;9.07;;;4.07;;
11691;SDS011;33659;42.672;23.354;2023-04-24T04:32:31;18.63;;;11.63;;
11691;SDS011;33659;42.672;23.354;2023-04-24T04:34:58;20.73;;;12.77;;
11691;SDS011;33659;42.672;23.354;2023-04-24T04:37:28;7.65;;;5.95;;
11691;SDS011;33659;42.672;23.354;2023-04-24T04:39:54;45.35;;;25.00;;
11691;SDS011;33659;42.672;23.354;2023-04-24T04:42:23;66.63;;;37.28;;
11691;SDS011;33659;42.672;23.354;2023-04-24T04:44:49;304.17;;;161.82;;
11691;SDS011;33659;42.672;23.354;2023-04-24T04:47:16;1012.72;;;477.92;;
11691;SDS011;33659;42.672;23.354;2023-04-24T04:49:44;378.63;;;238.23;;
11691;SDS011;33659;42.672;23.354;2023-04-24T04:52:11;19.92;;;10.85;;
11691;SDS011;33659;42.672;23.354;2023-04-24T04:54:38;12.98;;;4.65;;
11691;SDS011;33659;42.672;23.354;2023-04-24T04:57:04;16.27;;;9.80;;
11691;SDS011;33659;42.672;23.354;2023-04-24T04:59:31;86.25;;;41.20;;
11691;SDS011;33659;42.672;23.354;2023-04-24T05:01:58;163.98;;;84.90;;
11691;SDS011;33659;42.672;23.354;2023-04-24T05:04:25;45.03;;;23.00;;
11691;SDS011;33659;42.672;23.354;2023-04-24T05:06:53;46.47;;;26.33;;
11691;SDS011;33659;42.672;23.354;2023-04-24T05:09:19;10.00;;;4.50;;
11691;SDS011;33659;42.672;23.354;2023-04-24T05:11:46;5.70;;;3.78;;
11691;SDS011;33659;42.672;23.354;2023-04-24T05:14:12;5.90;;;4.10;;
11691;SDS011;33659;42.672;23.354;2023-04-24T05:16:39;6.68;;;4.10;;
11691;SDS011;33659;42.672;23.354;2023-04-24T05:19:06;12.13;;;5.00;;
11691;SDS011;33659;42.672;23.354;2023-04-24T05:21:32;7.47;;;5.05;;
11691;SDS011;33659;42.672;23.354;2023-04-24T05:24:00;5.28;;;3.85;;
11691;SDS011;33659;42.672;23.354;2023-04-24T05:26:29;5.50;;;4.05;;
11691;SDS011;33659;42.672;23.354;2023-04-24T05:28:55;8.18;;;4.05;;
11691;SDS011;33659;42.672;23.354;2023-04-24T05:31:22;11.02;;;3.78;;
11691;SDS011;33659;42.672;23.354;2023-04-24T05:33:49;7.40;;;4.22;;
11691;SDS011;33659;42.672;23.354;2023-04-24T05:36:15;8.93;;;4.30;;
11691;SDS011;33659;42.672;23.354;2023-04-24T05:38:42;7.22;;;4.03;;
11691;SDS011;33659;42.672;23.354;2023-04-24T05:41:10;8.07;;;4.55;;
11691;SDS011;33659;42.672;23.354;2023-04-24T05:43:37;5.45;;;4.13;;
11691;SDS011;33659;42.672;23.354;2023-04-24T05:46:03;5.47;;;4.40;;
11691;SDS011;33659;42.672;23.354;2023-04-24T05:48:30;8.05;;;4.32;;
11691;SDS011;33659;42.672;23.354;2023-04-24T05:50:57;9.10;;;4.35;;
11691;SDS011;33659;42.672;23.354;2023-04-24T05:53:23;6.00;;;4.57;;
11691;SDS011;33659;42.672;23.354;2023-04-24T05:55:50;7.38;;;4.68;;
11691;SDS011;33659;42.672;23.354;2023-04-24T05:58:18;7.68;;;5.03;;
11691;SDS011;33659;42.672;23.354;2023-04-24T06:00:45;5.15;;;4.53;;
11691;SDS011;33659;42.672;23.354;2023-04-24T06:03:12;7.32;;;5.20;;
11691;SDS011;33659;42.672;23.354;2023-04-24T06:05:38;10.52;;;5.32;;
11691;SDS011;33659;42.672;23.354;2023-04-24T06:08:05;10.65;;;6.03;;
11691;SDS011;33659;42.672;23.354;2023-04-24T06:10:32;11.02;;;5.30;;
11691;SDS011;33659;42.672;23.354;2023-04-24T06:12:58;8.07;;;5.32;;
11691;SDS011;33659;42.672;23.354;2023-04-24T06:15:28;8.05;;;5.13;;
11691;SDS011;33659;42.672;23.354;2023-04-24T06:17:56;8.52;;;5.40;;
11691;SDS011;33659;42.672;23.354;2023-04-24T06:20:22;10.00;;;5.95;;
11691;SDS011;33659;42.672;23.354;2023-04-24T06:22:49;10.40;;;5.55;;
11691;SDS011;33659;42.672;23.354;2023-04-24T06:25:16;8.10;;;5.75;;
11691;SDS011;33659;42.672;23.354;2023-04-24T06:27:43;8.50;;;5.80;;
11691;SDS011;33659;42.672;23.354;2023-04-24T06:30:10;9.43;;;5.65;;
11691;SDS011;33659;42.672;23.354;2023-04-24T06:32:39;8.98;;;5.57;;
11691;SDS011;33659;42.672;23.354;2023-04-24T06:35:06;7.05;;;4.90;;
11691;SDS011;33659;42.672;23.354;2023-04-24T06:37:35;7.80;;;5.90;;
11691;SDS011;33659;42.672;23.354;2023-04-24T06:40:01;8.00;;;5.63;;
11691;SDS011;33659;42.672;23.354;2023-04-24T06:42:28;11.15;;;5.97;;
11691;SDS011;33659;42.672;23.354;2023-04-24T06:44:55;9.15;;;5.88;;
11691;SDS011;33659;42.672;23.354;2023-04-24T06:47:22;7.28;;;5.50;;
11691;SDS011;33659;42.672;23.354;2023-04-24T06:49:50;12.30;;;5.70;;
11691;SDS011;33659;42.672;23.354;2023-04-24T06:52:17;10.38;;;5.25;;
11691;SDS011;33659;42.672;23.354;2023-04-24T06:54:44;8.43;;;4.70;;
11691;SDS011;33659;42.672;23.354;2023-04-24T06:57:11;10.90;;;5.53;;
11691;SDS011;33659;42.672;23.354;2023-04-24T06:59:37;7.25;;;5.97;;
11691;SDS011;33659;42.672;23.354;2023-04-24T07:02:04;10.30;;;6.47;;
11691;SDS011;33659;42.672;23.354;2023-04-24T07:04:31;7.07;;;5.18;;
11691;SDS011;33659;42.672;23.354;2023-04-24T07:06:59;7.65;;;5.30;;
11691;SDS011;33659;42.672;23.354;2023-04-24T07:09:26;10.05;;;5.00;;
11691;SDS011;33659;42.672;23.354;2023-04-24T07:11:53;7.10;;;5.35;;
11691;SDS011;33659;42.672;23.354;2023-04-24T07:14:21;10.35;;;5.45;;
11691;SDS011;33659;42.672;23.354;2023-04-24T07:16:48;8.38;;;5.60;;
11691;SDS011;33659;42.672;23.354;2023-04-24T07:19:15;11.20;;;5.10;;
11691;SDS011;33659;42.672;23.354;2023-04-24T07:21:42;8.52;;;5.47;;
11691;SDS011;33659;42.672;23.354;2023-04-24T07:24:10;10.52;;;5.75;;
11691;SDS011;33659;42.672;23.354;2023-04-24T07:26:38;9.07;;;5.68;;
11691;SDS011;33659;42.672;23.354;2023-04-24T07:29:05;5.97;;;5.38;;
11691;SDS011;33659;42.672;23.354;2023-04-24T07:31:32;6.50;;;5.13;;
11691;SDS011;33659;42.672;23.354;2023-04-24T07:33:58;8.38;;;5.78;;
11691;SDS011;33659;42.672;23.354;2023-04-24T07:36:25;9.30;;;5.13;;
11691;SDS011;33659;42.672;23.354;2023-04-24T07:38:53;50.45;;;26.88;;
11691;SDS011;33659;42.672;23.354;2023-04-24T07:41:22;11.55;;;8.52;;
11691;SDS011;33659;42.672;23.354;2023-04-24T07:43:49;22.38;;;12.50;;
11691;SDS011;33659;42.672;23.354;2023-04-24T07:46:16;14.80;;;9.25;;
11691;SDS011;33659;42.672;23.354;2023-04-24T07:48:42;6.60;;;4.72;;
11691;SDS011;33659;42.672;23.354;2023-04-24T07:51:09;10.98;;;7.45;;
11691;SDS011;33659;42.672;23.354;2023-04-24T07:53:38;5.70;;;4.30;;
11691;SDS011;33659;42.672;23.354;2023-04-24T07:56:05;6.10;;;5.18;;
11691;SDS011;33659;42.672;23.354;2023-04-24T07:58:33;13.55;;;6.32;;
11691;SDS011;33659;42.672;23.354;2023-04-24T08:01:00;9.05;;;7.22;;
11691;SDS011;33659;42.672;23.354;2023-04-24T08:03:26;7.93;;;4.72;;
11691;SDS011;33659;42.672;23.354;2023-04-24T08:05:53;13.45;;;6.75;;
11691;SDS011;33659;42.672;23.354;2023-04-24T08:08:20;8.45;;;5.05;;
11691;SDS011;33659;42.672;23.354;2023-04-24T08:10:48;8.32;;;5.78;;
11691;SDS011;33659;42.672;23.354;2023-04-24T08:13:15;5.53;;;4.35;;
11691;SDS011;33659;42.672;23.354;2023-04-24T08:15:43;9.10;;;5.35;;
11691;SDS011;33659;42.672;23.354;2023-04-24T08:18:10;5.63;;;4.85;;
11691;SDS011;33659;42.672;23.354;2023-04-24T08:20:38;7.70;;;5.07;;
11691;SDS011;33659;42.672;23.354;2023-04-24T08:23:05;8.70;;;5.40;;
11691;SDS011;33659;42.672;23.354;2023-04-24T08:25:32;6.25;;;4.32;;
11691;SDS011;33659;42.672;23.354;2023-04-24T08:28:00;6.80;;;5.15;;
11691;SDS011;33659;42.672;23.354;2023-04-24T08:30:28;7.75;;;4.80;;
11691;SDS011;33659;42.672;23.354;2023-04-24T08:32:56;6.38;;;4.53;;
11691;SDS011;33659;42.672;23.354;2023-04-24T08:35:22;7.38;;;4.57;;
11691;SDS011;33659;42.672;23.354;2023-04-24T08:37:51;8.35;;;4.40;;
11691;SDS011;33659;42.672;23.354;2023-04-24T08:40:19;5.95;;;4.60;;
11691;SDS011;33659;42.672;23.354;2023-04-24T08:42:54;5.95;;;4.70;;
11691;SDS011;33659;42.672;23.354;2023-04-24T08:45:22;7.03;;;3.83;;
11691;SDS011;33659;42.672;23.354;2023-04-24T08:47:51;4.95;;;4.50;;
11691;SDS011;33659;42.672;23.354;2023-04-24T08:50:20;6.03;;;4.13;;
11691;SDS011;33659;42.672;23.354;2023-04-24T08:52:48;9.27;;;4.43;;
11691;SDS011;33659;42.672;23.354;2023-04-24T08:55:18;5.05;;;3.95;;
11691;SDS011;33659;42.672;23.354;2023-04-24T08:57:45;5.50;;;4.03;;
11691;SDS011;33659;42.672;23.354;2023-04-24T09:00:17;5.10;;;4.38;;
11691;SDS011;33659;42.672;23.354;2023-04-24T09:02:44;4.35;;;3.47;;
11691;SDS011;33659;42.672;23.354;2023-04-24T09:05:14;6.13;;;4.15;;
11691;SDS011;33659;42.672;23.354;2023-04-24T09:07:46;8.25;;;4.32;;
11691;SDS011;33659;42.672;23.354;2023-04-24T09:10:19;6.35;;;4.07;;
11691;SDS011;33659;42.672;23.354;2023-04-24T09:12:47;4.95;;;3.75;;
11691;SDS011;33659;42.672;23.354;2023-04-24T09:15:13;5.05;;;3.80;;
11691;SDS011;33659;42.672;23.354;2023-04-24T09:17:40;8.30;;;4.22;;
11691;SDS011;33659;42.672;23.354;2023-04-24T09:20:07;7.30;;;3.83;;
11691;SDS011;33659;42.672;23.354;2023-04-24T09:22:34;4.53;;;3.65;;
11691;SDS011;33659;42.672;23.354;2023-04-24T09:25:06;4.80;;;3.70;;
11691;SDS011;33659;42.672;23.354;2023-04-24T09:27:34;4.93;;;3.90;;
11691;SDS011;33659;42.672;23.354;2023-04-24T09:30:01;6.43;;;3.35;;
11691;SDS011;33659;42.672;23.354;2023-04-24T09:32:29;5.32;;;3.60;;
11691;SDS011;33659;42.672;23.354;2023-04-24T09:35:09;3.97;;;3.67;;
11691;SDS011;33659;42.672;23.354;2023-04-24T09:37:38;4.47;;;4.07;;
11691;SDS011;33659;42.672;23.354;2023-04-24T09:40:12;5.15;;;3.63;;
11691;SDS011;33659;42.672;23.354;2023-04-24T09:42:40;4.68;;;3.92;;
11691;SDS011;33659;42.672;23.354;2023-04-24T09:45:11;4.10;;;3.70;;
11691;SDS011;33659;42.672;23.354;2023-04-24T09:47:38;5.93;;;3.67;;
11691;SDS011;33659;42.672;23.354;2023-04-24T09:50:14;4.85;;;3.97;;
11691;SDS011;33659;42.672;23.354;2023-04-24T09:52:43;4.38;;;3.78;;
11691;SDS011;33659;42.672;23.354;2023-04-24T09:55:14;5.07;;;3.63;;
11691;SDS011;33659;42.672;23.354;2023-04-24T09:57:49;5.20;;;3.75;;
11691;SDS011;33659;42.672;23.354;2023-04-24T10:00:23;5.70;;;3.90;;
11691;SDS011;33659;42.672;23.354;2023-04-24T10:02:55;4.70;;;3.58;;
11691;SDS011;33659;42.672;23.354;2023-04-24T10:05:23;8.02;;;3.97;;
11691;SDS011;33659;42.672;23.354;2023-04-24T10:07:50;7.47;;;3.40;;
11691;SDS011;33659;42.672;23.354;2023-04-24T10:10:19;8.00;;;3.67;;
11691;SDS011;33659;42.672;23.354;2023-04-24T10:12:46;5.38;;;3.72;;
11691;SDS011;33659;42.672;23.354;2023-04-24T10:15:13;5.10;;;3.53;;
11691;SDS011;33659;42.672;23.354;2023-04-24T10:17:45;3.80;;;3.20;;
11691;SDS011;33659;42.672;23.354;2023-04-24T10:20:17;10.73;;;3.40;;
11691;SDS011;33659;42.672;23.354;2023-04-24T10:22:45;5.50;;;3.47;;
11691;SDS011;33659;42.672;23.354;2023-04-24T10:25:16;3.75;;;3.20;;
11691;SDS011;33659;42.672;23.354;2023-04-24T10:27:44;6.13;;;3.72;;
11691;SDS011;33659;42.672;23.354;2023-04-24T10:30:12;3.20;;;2.92;;
11691;SDS011;33659;42.672;23.354;2023-04-24T10:32:39;4.55;;;3.60;;
11691;SDS011;33659;42.672;23.354;2023-04-24T10:35:06;4.00;;;3.60;;
11691;SDS011;33659;42.672;23.354;2023-04-24T10:37:34;4.60;;;3.25;;
11691;SDS011;33659;42.672;23.354;2023-04-24T10:40:04;3.80;;;3.40;;
11691;SDS011;33659;42.672;23.354;2023-04-24T10:42:33;4.75;;;3.35;;
11691;SDS011;33659;42.672;23.354;2023-04-24T10:45:06;5.43;;;3.58;;
11691;SDS011;33659;42.672;23.354;2023-04-24T10:47:39;6.88;;;3.30;;
11691;SDS011;33659;42.672;23.354;2023-04-24T10:50:07;6.85;;;4.78;;
11691;SDS011;33659;42.672;23.354;2023-04-24T10:52:45;6.65;;;3.55;;
11691;SDS011;33659;42.672;23.354;2023-04-24T10:55:12;4.55;;;3.50;;
11691;SDS011;33659;42.672;23.354;2023-04-24T10:57:39;3.45;;;3.15;;
11691;SDS011;33659;42.672;23.354;2023-04-24T11:00:12;5.82;;;3.00;;
11691;SDS011;33659;42.672;23.354;2023-04-24T11:02:41;5.28;;;3.05;;
11691;SDS011;33659;42.672;23.354;2023-04-24T11:05:14;4.63;;;3.22;;
11691;SDS011;33659;42.672;23.354;2023-04-24T11:10:38;5.30;;;3.78;;
11691;SDS011;33659;42.672;23.354;2023-04-24T11:13:05;3.78;;;2.85;;
11691;SDS011;33659;42.672;23.354;2023-04-24T11:15:34;3.38;;;2.63;;
11691;SDS011;33659;42.672;23.354;2023-04-24T11:18:01;4.93;;;3.08;;
11691;SDS011;33659;42.672;23.354;2023-04-24T11:20:27;4.00;;;2.97;;
11691;SDS011;33659;42.672;23.354;2023-04-24T11:22:54;5.72;;;3.53;;
11691;SDS011;33659;42.672;23.354;2023-04-24T11:25:22;5.25;;;3.80;;
11691;SDS011;33659;42.672;23.354;2023-04-24T11:27:50;4.85;;;3.05;;
11691;SDS011;33659;42.672;23.354;2023-04-24T11:30:29;4.72;;;2.97;;
11691;SDS011;33659;42.672;23.354;2023-04-24T11:32:59;4.10;;;3.08;;
11691;SDS011;33659;42.672;23.354;2023-04-24T11:35:29;5.40;;;3.08;;
11691;SDS011;33659;42.672;23.354;2023-04-24T11:37:56;3.55;;;2.75;;
11691;SDS011;33659;42.672;23.354;2023-04-24T11:40:24;5.50;;;2.53;;
11691;SDS011;33659;42.672;23.354;2023-04-24T11:42:51;2.72;;;2.53;;
11691;SDS011;33659;42.672;23.354;2023-04-24T11:45:21;2.97;;;2.67;;
11691;SDS011;33659;42.672;23.354;2023-04-24T11:47:49;3.03;;;2.78;;
11691;SDS011;33659;42.672;23.354;2023-04-24T11:50:18;2.90;;;2.67;;
11691;SDS011;33659;42.672;23.354;2023-04-24T11:52:46;2.95;;;2.55;;
11691;SDS011;33659;42.672;23.354;2023-04-24T11:55:23;3.20;;;2.78;;
11691;SDS011;33659;42.672;23.354;2023-04-24T11:57:52;3.55;;;3.25;;
11691;SDS011;33659;42.672;23.354;2023-04-24T12:00:22;2.80;;;2.60;;
11691;SDS011;33659;42.672;23.354;2023-04-24T12:02:49;2.28;;;2.17;;
11691;SDS011;33659;42.672;23.354;2023-04-24T12:05:20;2.55;;;2.35;;
11691;SDS011;33659;42.672;23.354;2023-04-24T12:07:47;2.83;;;2.63;;
11691;SDS011;33659;42.672;23.354;2023-04-24T12:10:14;4.65;;;2.95;;
11691;SDS011;33659;42.672;23.354;2023-04-24T12:12:49;3.55;;;3.03;;
11691;SDS011;33659;42.672;23.354;2023-04-24T12:15:17;3.08;;;2.80;;
11691;SDS011;33659;42.672;23.354;2023-04-24T12:17:44;2.83;;;2.63;;
11691;SDS011;33659;42.672;23.354;2023-04-24T12:20:11;5.85;;;2.83;;
11691;SDS011;33659;42.672;23.354;2023-04-24T12:22:48;5.43;;;3.45;;
11691;SDS011;33659;42.672;23.354;2023-04-24T12:25:16;4.68;;;3.60;;
11691;SDS011;33659;42.672;23.354;2023-04-24T12:27:43;3.50;;;3.20;;
11691;SDS011;33659;42.672;23.354;2023-04-24T12:30:12;3.83;;;3.15;;
11691;SDS011;33659;42.672;23.354;2023-04-24T12:32:41;2.58;;;2.38;;
11691;SDS011;33659;42.672;23.354;2023-04-24T12:35:08;4.57;;;2.70;;
11691;SDS011;33659;42.672;23.354;2023-04-24T12:37:35;3.13;;;2.55;;
11691;SDS011;33659;42.672;23.354;2023-04-24T12:40:04;6.07;;;2.92;;
11691;SDS011;33659;42.672;23.354;2023-04-24T12:42:33;2.60;;;2.40;;
11691;SDS011;33659;42.672;23.354;2023-04-24T12:45:01;2.08;;;1.92;;
11691;SDS011;33659;42.672;23.354;2023-04-24T12:47:30;2.88;;;2.60;;
11691;SDS011;33659;42.672;23.354;2023-04-24T12:50:00;2.75;;;2.53;;
11691;SDS011;33659;42.672;23.354;2023-04-24T12:52:28;4.32;;;2.90;;
11691;SDS011;33659;42.672;23.354;2023-04-24T12:54:56;4.65;;;2.95;;
11691;SDS011;33659;42.672;23.354;2023-04-24T12:57:28;3.33;;;2.88;;
11691;SDS011;33659;42.672;23.354;2023-04-24T12:59:57;4.57;;;3.10;;
11691;SDS011;33659;42.672;23.354;2023-04-24T13:02:25;4.15;;;3.28;;
11691;SDS011;33659;42.672;23.354;2023-04-24T13:04:55;4.00;;;2.97;;
11691;SDS011;33659;42.672;23.354;2023-04-24T13:07:31;4.18;;;2.97;;
11691;SDS011;33659;42.672;23.354;2023-04-24T13:10:11;4.55;;;3.25;;
11691;SDS011;33659;42.672;23.354;2023-04-24T13:12:40;3.85;;;3.28;;
11691;SDS011;33659;42.672;23.354;2023-04-24T13:15:10;4.10;;;3.00;;
11691;SDS011;33659;42.672;23.354;2023-04-24T13:17:37;3.58;;;3.28;;
11691;SDS011;33659;42.672;23.354;2023-04-24T13:20:04;5.07;;;3.45;;
11691;SDS011;33659;42.672;23.354;2023-04-24T13:22:32;5.40;;;3.33;;
11691;SDS011;33659;42.672;23.354;2023-04-24T13:24:58;6.50;;;3.20;;
11691;SDS011;33659;42.672;23.354;2023-04-24T13:27:26;3.90;;;3.13;;
11691;SDS011;33659;42.672;23.354;2023-04-24T13:29:54;3.45;;;3.15;;
11691;SDS011;33659;42.672;23.354;2023-04-24T13:32:21;6.00;;;2.97;;
11691;SDS011;33659;42.672;23.354;2023-04-24T13:34:47;4.53;;;2.88;;
11691;SDS011;33659;42.672;23.354;2023-04-24T13:37:14;4.05;;;3.70;;
11691;SDS011;33659;42.672;23.354;2023-04-24T13:39:41;4.32;;;3.58;;
11691;SDS011;33659;42.672;23.354;2023-04-24T13:42:07;3.92;;;3.58;;
11691;SDS011;33659;42.672;23.354;2023-04-24T13:44:34;4.05;;;3.65;;
11691;SDS011;33659;42.672;23.354;2023-04-24T13:47:02;3.63;;;3.08;;
11691;SDS011;33659;42.672;23.354;2023-04-24T13:49:29;4.13;;;2.83;;
11691;SDS011;33659;42.672;23.354;2023-04-24T13:51:56;4.22;;;3.38;;
11691;SDS011;33659;42.672;23.354;2023-04-24T13:54:23;3.47;;;3.17;;
11691;SDS011;33659;42.672;23.354;2023-04-24T13:56:50;4.43;;;3.35;;
11691;SDS011;33659;42.672;23.354;2023-04-24T13:59:18;3.88;;;3.10;;
11691;SDS011;33659;42.672;23.354;2023-04-24T14:01:46;3.38;;;3.08;;
11691;SDS011;33659;42.672;23.354;2023-04-24T14:04:18;5.30;;;3.00;;
11691;SDS011;33659;42.672;23.354;2023-04-24T14:06:45;4.18;;;3.13;;
11691;SDS011;33659;42.672;23.354;2023-04-24T14:09:12;3.72;;;3.03;;
11691;SDS011;33659;42.672;23.354;2023-04-24T14:11:39;4.43;;;3.20;;
11691;SDS011;33659;42.672;23.354;2023-04-24T14:14:07;3.88;;;2.78;;
11691;SDS011;33659;42.672;23.354;2023-04-24T14:16:34;4.90;;;2.90;;
11691;SDS011;33659;42.672;23.354;2023-04-24T14:19:01;5.53;;;3.15;;
11691;SDS011;33659;42.672;23.354;2023-04-24T14:21:30;6.45;;;2.92;;
11691;SDS011;33659;42.672;23.354;2023-04-24T14:23:57;6.97;;;3.10;;
11691;SDS011;33659;42.672;23.354;2023-04-24T14:26:24;2.92;;;2.60;;
11691;SDS011;33659;42.672;23.354;2023-04-24T14:28:51;3.15;;;2.95;;
11691;SDS011;33659;42.672;23.354;2023-04-24T14:31:18;2.55;;;2.35;;
11691;SDS011;33659;42.672;23.354;2023-04-24T14:33:45;2.95;;;2.65;;
11691;SDS011;33659;42.672;23.354;2023-04-24T14:36:12;2.95;;;2.67;;
11691;SDS011;33659;42.672;23.354;2023-04-24T14:38:40;3.60;;;3.30;;